sensor_id;sensor_type;location;lat;lon;timestamp;P1;durP1;ratioP1;P2;durP2;ratioP2
49730;SDS011;35622;52.008;5.426;2023-06-19T00:01:19;10.63;;;8.63;;
49730;SDS011;35622;52.008;5.426;2023-06-19T00:03:50;9.20;;;8.30;;
49730;SDS011;35622;52.008;5.426;2023-06-19T00:06:16;9.15;;;8.25;;
49730;SDS011;35622;52.008;5.426;2023-06-19T00:08:43;12.80;;;9.05;;
49730;SDS011;35622;52.008;5.426;2023-06-19T00:11:09;8.95;;;8.07;;
49730;SDS011;35622;52.008;5.426;2023-06-19T00:13:36;11.15;;;8.18;;
49730;SDS011;35622;52.008;5.426;2023-06-19T00:16:02;8.88;;;8.00;;
49730;SDS011;35622;52.008;5.426;2023-06-19T00:18:28;9.85;;;8.50;;
49730;SDS011;35622;52.008;5.426;2023-06-19T00:20:54;9.75;;;8.75;;
49730;SDS011;35622;52.008;5.426;2023-06-19T00:23:21;9.98;;;8.85;;
49730;SDS011;35622;52.008;5.426;2023-06-19T00:25:47;10.80;;;9.13;;
49730;SDS011;35622;52.008;5.426;2023-06-19T00:28:13;10.40;;;8.65;;
49730;SDS011;35622;52.008;5.426;2023-06-19T00:30:40;9.05;;;7.78;;
49730;SDS011;35622;52.008;5.426;2023-06-19T00:33:11;9.68;;;8.00;;
49730;SDS011;35622;52.008;5.426;2023-06-19T00:35:39;10.10;;;9.10;;
49730;SDS011;35622;52.008;5.426;2023-06-19T00:38:07;11.05;;;9.23;;
49730;SDS011;35622;52.008;5.426;2023-06-19T00:40:34;9.23;;;8.20;;
49730;SDS011;35622;52.008;5.426;2023-06-19T00:42:59;9.75;;;8.63;;
49730;SDS011;35622;52.008;5.426;2023-06-19T00:45:25;9.73;;;8.73;;
49730;SDS011;35622;52.008;5.426;2023-06-19T00:47:52;10.43;;;8.57;;
49730;SDS011;35622;52.008;5.426;2023-06-19T00:50:18;10.07;;;8.60;;
49730;SDS011;35622;52.008;5.426;2023-06-19T00:52:44;10.20;;;8.93;;
49730;SDS011;35622;52.008;5.426;2023-06-19T00:55:10;9.40;;;8.50;;
49730;SDS011;35622;52.008;5.426;2023-06-19T00:57:36;11.73;;;9.32;;
49730;SDS011;35622;52.008;5.426;2023-06-19T01:00:04;10.02;;;8.85;;
49730;SDS011;35622;52.008;5.426;2023-06-19T01:02:32;9.35;;;8.35;;
49730;SDS011;35622;52.008;5.426;2023-06-19T01:04:58;10.38;;;8.75;;
49730;SDS011;35622;52.008;5.426;2023-06-19T01:07:30;9.30;;;8.38;;
49730;SDS011;35622;52.008;5.426;2023-06-19T01:10:11;11.93;;;9.00;;
49730;SDS011;35622;52.008;5.426;2023-06-19T01:12:44;10.48;;;8.35;;
49730;SDS011;35622;52.008;5.426;2023-06-19T01:15:15;9.32;;;8.00;;
49730;SDS011;35622;52.008;5.426;2023-06-19T01:17:41;9.50;;;8.23;;
49730;SDS011;35622;52.008;5.426;2023-06-19T01:20:08;9.68;;;8.50;;
49730;SDS011;35622;52.008;5.426;2023-06-19T01:22:36;9.43;;;8.48;;
49730;SDS011;35622;52.008;5.426;2023-06-19T01:25:02;10.35;;;8.82;;
49730;SDS011;35622;52.008;5.426;2023-06-19T01:27:31;11.68;;;9.05;;
49730;SDS011;35622;52.008;5.426;2023-06-19T01:29:58;10.38;;;8.57;;
49730;SDS011;35622;52.008;5.426;2023-06-19T01:32:29;11.75;;;8.80;;
49730;SDS011;35622;52.008;5.426;2023-06-19T01:35:00;11.68;;;9.77;;
49730;SDS011;35622;52.008;5.426;2023-06-19T01:37:36;10.35;;;9.18;;
49730;SDS011;35622;52.008;5.426;2023-06-19T01:40:03;11.77;;;9.15;;
49730;SDS011;35622;52.008;5.426;2023-06-19T01:42:34;10.63;;;9.52;;
49730;SDS011;35622;52.008;5.426;2023-06-19T01:45:03;12.95;;;9.40;;
49730;SDS011;35622;52.008;5.426;2023-06-19T01:47:29;10.10;;;9.00;;
49730;SDS011;35622;52.008;5.426;2023-06-19T01:49:55;11.07;;;9.25;;
49730;SDS011;35622;52.008;5.426;2023-06-19T01:52:20;9.63;;;7.32;;
49730;SDS011;35622;52.008;5.426;2023-06-19T01:54:46;8.88;;;7.35;;
49730;SDS011;35622;52.008;5.426;2023-06-19T01:57:12;7.45;;;5.80;;
49730;SDS011;35622;52.008;5.426;2023-06-19T01:59:38;6.78;;;5.80;;
49730;SDS011;35622;52.008;5.426;2023-06-19T02:02:03;7.03;;;5.47;;
49730;SDS011;35622;52.008;5.426;2023-06-19T02:04:31;6.05;;;4.10;;
49730;SDS011;35622;52.008;5.426;2023-06-19T02:06:57;5.65;;;4.22;;
49730;SDS011;35622;52.008;5.426;2023-06-19T02:09:22;5.07;;;3.50;;
49730;SDS011;35622;52.008;5.426;2023-06-19T02:11:48;5.15;;;3.17;;
49730;SDS011;35622;52.008;5.426;2023-06-19T02:14:14;3.83;;;2.53;;
49730;SDS011;35622;52.008;5.426;2023-06-19T02:16:39;5.45;;;3.05;;
49730;SDS011;35622;52.008;5.426;2023-06-19T02:19:09;3.65;;;2.40;;
49730;SDS011;35622;52.008;5.426;2023-06-19T02:21:37;3.25;;;2.35;;
49730;SDS011;35622;52.008;5.426;2023-06-19T02:24:04;3.95;;;2.40;;
49730;SDS011;35622;52.008;5.426;2023-06-19T02:26:30;4.30;;;2.47;;
49730;SDS011;35622;52.008;5.426;2023-06-19T02:28:56;3.78;;;2.67;;
49730;SDS011;35622;52.008;5.426;2023-06-19T02:31:24;4.40;;;2.78;;
49730;SDS011;35622;52.008;5.426;2023-06-19T02:33:50;5.75;;;2.80;;
49730;SDS011;35622;52.008;5.426;2023-06-19T02:36:15;4.60;;;2.60;;
49730;SDS011;35622;52.008;5.426;2023-06-19T02:38:48;3.50;;;2.70;;
49730;SDS011;35622;52.008;5.426;2023-06-19T02:41:14;6.90;;;2.88;;
49730;SDS011;35622;52.008;5.426;2023-06-19T02:43:43;4.28;;;3.10;;
49730;SDS011;35622;52.008;5.426;2023-06-19T02:46:11;3.88;;;2.85;;
49730;SDS011;35622;52.008;5.426;2023-06-19T02:48:37;4.63;;;3.03;;
49730;SDS011;35622;52.008;5.426;2023-06-19T02:51:02;3.92;;;2.25;;
49730;SDS011;35622;52.008;5.426;2023-06-19T02:53:28;3.30;;;2.40;;
49730;SDS011;35622;52.008;5.426;2023-06-19T02:55:54;4.05;;;3.15;;
49730;SDS011;35622;52.008;5.426;2023-06-19T02:58:19;4.28;;;3.15;;
49730;SDS011;35622;52.008;5.426;2023-06-19T03:00:45;3.78;;;2.72;;
49730;SDS011;35622;52.008;5.426;2023-06-19T03:03:11;4.15;;;2.50;;
49730;SDS011;35622;52.008;5.426;2023-06-19T03:05:37;3.58;;;2.47;;
49730;SDS011;35622;52.008;5.426;2023-06-19T03:08:03;3.22;;;2.33;;
49730;SDS011;35622;52.008;5.426;2023-06-19T03:10:29;4.50;;;2.90;;
49730;SDS011;35622;52.008;5.426;2023-06-19T03:12:54;4.18;;;2.78;;
49730;SDS011;35622;52.008;5.426;2023-06-19T03:15:20;3.50;;;3.20;;
49730;SDS011;35622;52.008;5.426;2023-06-19T03:17:46;4.43;;;2.95;;
49730;SDS011;35622;52.008;5.426;2023-06-19T03:20:12;3.58;;;2.85;;
49730;SDS011;35622;52.008;5.426;2023-06-19T03:22:41;3.08;;;2.40;;
49730;SDS011;35622;52.008;5.426;2023-06-19T03:25:07;3.67;;;2.70;;
49730;SDS011;35622;52.008;5.426;2023-06-19T03:27:33;3.97;;;2.90;;
49730;SDS011;35622;52.008;5.426;2023-06-19T03:29:59;4.13;;;3.15;;
49730;SDS011;35622;52.008;5.426;2023-06-19T03:32:25;4.00;;;2.70;;
49730;SDS011;35622;52.008;5.426;2023-06-19T03:34:51;3.15;;;2.50;;
49730;SDS011;35622;52.008;5.426;2023-06-19T03:37:16;4.97;;;3.53;;
49730;SDS011;35622;52.008;5.426;2023-06-19T03:39:42;3.50;;;2.88;;
49730;SDS011;35622;52.008;5.426;2023-06-19T03:42:08;5.13;;;3.25;;
49730;SDS011;35622;52.008;5.426;2023-06-19T03:44:33;5.00;;;3.30;;
49730;SDS011;35622;52.008;5.426;2023-06-19T03:46:59;4.18;;;3.08;;
49730;SDS011;35622;52.008;5.426;2023-06-19T03:49:25;4.68;;;3.70;;
49730;SDS011;35622;52.008;5.426;2023-06-19T03:51:51;6.82;;;5.40;;
49730;SDS011;35622;52.008;5.426;2023-06-19T03:54:17;4.40;;;3.40;;
49730;SDS011;35622;52.008;5.426;2023-06-19T03:56:42;4.88;;;3.72;;
49730;SDS011;35622;52.008;5.426;2023-06-19T03:59:08;5.55;;;3.80;;
49730;SDS011;35622;52.008;5.426;2023-06-19T04:01:33;6.13;;;5.47;;
49730;SDS011;35622;52.008;5.426;2023-06-19T04:03:59;8.60;;;6.80;;
49730;SDS011;35622;52.008;5.426;2023-06-19T04:06:24;6.80;;;5.68;;
49730;SDS011;35622;52.008;5.426;2023-06-19T04:08:50;6.40;;;5.57;;
49730;SDS011;35622;52.008;5.426;2023-06-19T04:11:16;6.95;;;5.22;;
49730;SDS011;35622;52.008;5.426;2023-06-19T04:13:42;8.35;;;6.47;;
49730;SDS011;35622;52.008;5.426;2023-06-19T04:16:07;6.93;;;6.10;;
49730;SDS011;35622;52.008;5.426;2023-06-19T04:18:33;7.35;;;6.38;;
49730;SDS011;35622;52.008;5.426;2023-06-19T04:20:58;7.10;;;5.78;;
49730;SDS011;35622;52.008;5.426;2023-06-19T04:23:24;8.13;;;6.07;;
49730;SDS011;35622;52.008;5.426;2023-06-19T04:25:50;7.20;;;5.85;;
49730;SDS011;35622;52.008;5.426;2023-06-19T04:28:15;7.28;;;6.03;;
49730;SDS011;35622;52.008;5.426;2023-06-19T04:30:41;7.70;;;6.20;;
49730;SDS011;35622;52.008;5.426;2023-06-19T04:33:07;10.05;;;6.63;;
49730;SDS011;35622;52.008;5.426;2023-06-19T04:35:33;11.63;;;7.82;;
49730;SDS011;35622;52.008;5.426;2023-06-19T04:38:04;9.82;;;7.70;;
49730;SDS011;35622;52.008;5.426;2023-06-19T04:40:30;8.25;;;6.70;;
49730;SDS011;35622;52.008;5.426;2023-06-19T04:42:58;12.00;;;9.18;;
49730;SDS011;35622;52.008;5.426;2023-06-19T04:45:24;10.30;;;8.25;;
49730;SDS011;35622;52.008;5.426;2023-06-19T04:47:50;9.88;;;7.25;;
49730;SDS011;35622;52.008;5.426;2023-06-19T04:50:16;10.52;;;7.85;;
49730;SDS011;35622;52.008;5.426;2023-06-19T04:52:41;11.30;;;8.50;;
49730;SDS011;35622;52.008;5.426;2023-06-19T04:55:07;12.60;;;9.57;;
49730;SDS011;35622;52.008;5.426;2023-06-19T04:57:36;14.20;;;10.85;;
49730;SDS011;35622;52.008;5.426;2023-06-19T05:00:06;11.68;;;8.75;;
49730;SDS011;35622;52.008;5.426;2023-06-19T05:02:32;12.65;;;9.52;;
49730;SDS011;35622;52.008;5.426;2023-06-19T05:04:58;12.65;;;9.55;;
49730;SDS011;35622;52.008;5.426;2023-06-19T05:07:28;13.65;;;12.02;;
49730;SDS011;35622;52.008;5.426;2023-06-19T05:10:00;13.95;;;10.70;;
49730;SDS011;35622;52.008;5.426;2023-06-19T05:12:26;14.15;;;11.82;;
49730;SDS011;35622;52.008;5.426;2023-06-19T05:14:51;12.50;;;10.00;;
49730;SDS011;35622;52.008;5.426;2023-06-19T05:17:17;16.33;;;12.52;;
49730;SDS011;35622;52.008;5.426;2023-06-19T05:19:42;14.73;;;11.75;;
49730;SDS011;35622;52.008;5.426;2023-06-19T05:22:08;15.57;;;11.43;;
49730;SDS011;35622;52.008;5.426;2023-06-19T05:24:33;13.43;;;10.93;;
49730;SDS011;35622;52.008;5.426;2023-06-19T05:26:59;15.30;;;12.40;;
49730;SDS011;35622;52.008;5.426;2023-06-19T05:29:25;13.25;;;11.35;;
49730;SDS011;35622;52.008;5.426;2023-06-19T05:31:50;13.27;;;11.10;;
49730;SDS011;35622;52.008;5.426;2023-06-19T05:34:16;13.48;;;10.60;;
49730;SDS011;35622;52.008;5.426;2023-06-19T05:36:42;11.80;;;9.48;;
49730;SDS011;35622;52.008;5.426;2023-06-19T05:39:10;9.93;;;8.70;;
49730;SDS011;35622;52.008;5.426;2023-06-19T05:41:35;10.18;;;8.05;;
49730;SDS011;35622;52.008;5.426;2023-06-19T05:44:01;8.43;;;6.72;;
49730;SDS011;35622;52.008;5.426;2023-06-19T05:46:26;10.40;;;7.13;;
49730;SDS011;35622;52.008;5.426;2023-06-19T05:48:52;8.40;;;5.82;;
49730;SDS011;35622;52.008;5.426;2023-06-19T05:51:19;10.90;;;6.82;;
49730;SDS011;35622;52.008;5.426;2023-06-19T05:53:45;8.73;;;5.78;;
49730;SDS011;35622;52.008;5.426;2023-06-19T05:56:11;8.35;;;5.72;;
49730;SDS011;35622;52.008;5.426;2023-06-19T05:58:37;7.50;;;5.00;;
49730;SDS011;35622;52.008;5.426;2023-06-19T06:01:04;7.15;;;5.55;;
49730;SDS011;35622;52.008;5.426;2023-06-19T06:03:30;6.80;;;4.93;;
49730;SDS011;35622;52.008;5.426;2023-06-19T06:05:56;8.23;;;5.20;;
49730;SDS011;35622;52.008;5.426;2023-06-19T06:08:27;6.40;;;5.40;;
49730;SDS011;35622;52.008;5.426;2023-06-19T06:10:54;6.85;;;5.15;;
49730;SDS011;35622;52.008;5.426;2023-06-19T06:13:19;6.25;;;4.32;;
49730;SDS011;35622;52.008;5.426;2023-06-19T06:15:45;7.15;;;4.15;;
49730;SDS011;35622;52.008;5.426;2023-06-19T06:18:10;6.75;;;5.05;;
49730;SDS011;35622;52.008;5.426;2023-06-19T06:20:36;10.93;;;8.35;;
49730;SDS011;35622;52.008;5.426;2023-06-19T06:23:02;13.30;;;11.48;;
49730;SDS011;35622;52.008;5.426;2023-06-19T06:25:28;12.75;;;9.65;;
49730;SDS011;35622;52.008;5.426;2023-06-19T06:27:53;14.13;;;10.52;;
49730;SDS011;35622;52.008;5.426;2023-06-19T06:30:19;14.30;;;11.45;;
49730;SDS011;35622;52.008;5.426;2023-06-19T06:32:44;15.40;;;11.88;;
49730;SDS011;35622;52.008;5.426;2023-06-19T06:35:10;15.32;;;11.30;;
49730;SDS011;35622;52.008;5.426;2023-06-19T06:37:36;14.20;;;12.32;;
49730;SDS011;35622;52.008;5.426;2023-06-19T06:40:02;11.95;;;10.63;;
49730;SDS011;35622;52.008;5.426;2023-06-19T06:42:33;12.38;;;10.95;;
49730;SDS011;35622;52.008;5.426;2023-06-19T06:44:59;13.88;;;12.00;;
49730;SDS011;35622;52.008;5.426;2023-06-19T06:47:24;13.32;;;11.00;;
49730;SDS011;35622;52.008;5.426;2023-06-19T06:49:50;11.18;;;9.55;;
49730;SDS011;35622;52.008;5.426;2023-06-19T06:52:15;11.68;;;10.43;;
49730;SDS011;35622;52.008;5.426;2023-06-19T06:54:41;9.70;;;8.70;;
49730;SDS011;35622;52.008;5.426;2023-06-19T06:57:07;9.13;;;8.05;;
49730;SDS011;35622;52.008;5.426;2023-06-19T06:59:33;8.85;;;7.95;;
49730;SDS011;35622;52.008;5.426;2023-06-19T07:01:58;8.77;;;7.63;;
49730;SDS011;35622;52.008;5.426;2023-06-19T07:04:24;7.80;;;7.00;;
49730;SDS011;35622;52.008;5.426;2023-06-19T07:06:50;10.50;;;8.55;;
49730;SDS011;35622;52.008;5.426;2023-06-19T07:09:16;10.98;;;9.60;;
49730;SDS011;35622;52.008;5.426;2023-06-19T07:11:43;9.25;;;8.35;;
49730;SDS011;35622;52.008;5.426;2023-06-19T07:14:08;10.95;;;9.23;;
49730;SDS011;35622;52.008;5.426;2023-06-19T07:16:34;9.27;;;8.27;;
49730;SDS011;35622;52.008;5.426;2023-06-19T07:18:59;10.23;;;9.32;;
49730;SDS011;35622;52.008;5.426;2023-06-19T07:21:25;11.80;;;10.43;;
49730;SDS011;35622;52.008;5.426;2023-06-19T07:23:53;14.23;;;12.82;;
49730;SDS011;35622;52.008;5.426;2023-06-19T07:26:18;15.10;;;13.15;;
49730;SDS011;35622;52.008;5.426;2023-06-19T07:28:44;13.20;;;11.27;;
49730;SDS011;35622;52.008;5.426;2023-06-19T07:31:09;11.48;;;9.95;;
49730;SDS011;35622;52.008;5.426;2023-06-19T07:33:35;14.32;;;11.48;;
49730;SDS011;35622;52.008;5.426;2023-06-19T07:36:01;13.73;;;11.98;;
49730;SDS011;35622;52.008;5.426;2023-06-19T07:38:27;15.98;;;14.27;;
49730;SDS011;35622;52.008;5.426;2023-06-19T07:40:53;15.23;;;13.02;;
49730;SDS011;35622;52.008;5.426;2023-06-19T07:43:19;17.45;;;14.68;;
49730;SDS011;35622;52.008;5.426;2023-06-19T07:45:47;17.85;;;14.80;;
49730;SDS011;35622;52.008;5.426;2023-06-19T07:48:13;16.60;;;14.07;;
49730;SDS011;35622;52.008;5.426;2023-06-19T07:50:38;16.63;;;13.82;;
49730;SDS011;35622;52.008;5.426;2023-06-19T07:53:04;18.70;;;15.23;;
49730;SDS011;35622;52.008;5.426;2023-06-19T07:55:30;13.93;;;12.05;;
49730;SDS011;35622;52.008;5.426;2023-06-19T07:57:56;17.75;;;13.60;;
49730;SDS011;35622;52.008;5.426;2023-06-19T08:00:22;13.13;;;11.30;;
49730;SDS011;35622;52.008;5.426;2023-06-19T08:02:49;14.68;;;12.05;;
49730;SDS011;35622;52.008;5.426;2023-06-19T08:05:15;18.05;;;13.95;;
49730;SDS011;35622;52.008;5.426;2023-06-19T08:07:40;15.43;;;11.40;;
49730;SDS011;35622;52.008;5.426;2023-06-19T08:10:06;14.52;;;12.55;;
49730;SDS011;35622;52.008;5.426;2023-06-19T08:12:32;12.57;;;11.00;;
49730;SDS011;35622;52.008;5.426;2023-06-19T08:14:58;12.90;;;10.80;;
49730;SDS011;35622;52.008;5.426;2023-06-19T08:17:24;11.90;;;10.57;;
49730;SDS011;35622;52.008;5.426;2023-06-19T08:19:49;12.43;;;8.68;;
49730;SDS011;35622;52.008;5.426;2023-06-19T08:22:15;9.35;;;8.45;;
49730;SDS011;35622;52.008;5.426;2023-06-19T08:24:40;13.98;;;12.52;;
49730;SDS011;35622;52.008;5.426;2023-06-19T08:27:06;12.88;;;10.82;;
49730;SDS011;35622;52.008;5.426;2023-06-19T08:29:32;11.25;;;9.85;;
49730;SDS011;35622;52.008;5.426;2023-06-19T08:31:57;13.38;;;11.70;;
49730;SDS011;35622;52.008;5.426;2023-06-19T08:34:23;13.02;;;10.90;;
49730;SDS011;35622;52.008;5.426;2023-06-19T08:36:49;13.40;;;12.02;;
49730;SDS011;35622;52.008;5.426;2023-06-19T08:39:14;11.05;;;9.82;;
49730;SDS011;35622;52.008;5.426;2023-06-19T08:41:40;11.27;;;10.18;;
49730;SDS011;35622;52.008;5.426;2023-06-19T08:44:08;13.60;;;11.43;;
49730;SDS011;35622;52.008;5.426;2023-06-19T08:46:34;12.50;;;11.20;;
49730;SDS011;35622;52.008;5.426;2023-06-19T08:49:03;13.32;;;11.88;;
49730;SDS011;35622;52.008;5.426;2023-06-19T08:51:31;13.00;;;11.70;;
49730;SDS011;35622;52.008;5.426;2023-06-19T08:54:00;13.45;;;12.02;;
49730;SDS011;35622;52.008;5.426;2023-06-19T08:56:27;13.10;;;11.77;;
49730;SDS011;35622;52.008;5.426;2023-06-19T08:58:53;14.07;;;11.02;;
49730;SDS011;35622;52.008;5.426;2023-06-19T09:01:19;19.05;;;12.00;;
49730;SDS011;35622;52.008;5.426;2023-06-19T09:03:47;14.18;;;11.57;;
49730;SDS011;35622;52.008;5.426;2023-06-19T09:06:17;12.15;;;10.70;;
49730;SDS011;35622;52.008;5.426;2023-06-19T09:08:43;12.38;;;10.80;;
49730;SDS011;35622;52.008;5.426;2023-06-19T09:11:09;11.90;;;10.32;;
49730;SDS011;35622;52.008;5.426;2023-06-19T09:13:36;12.20;;;10.45;;
49730;SDS011;35622;52.008;5.426;2023-06-19T09:16:02;11.93;;;10.65;;
49730;SDS011;35622;52.008;5.426;2023-06-19T09:18:30;11.77;;;10.13;;
49730;SDS011;35622;52.008;5.426;2023-06-19T09:20:56;12.02;;;10.82;;
49730;SDS011;35622;52.008;5.426;2023-06-19T09:23:23;11.43;;;9.57;;
49730;SDS011;35622;52.008;5.426;2023-06-19T09:25:50;12.90;;;10.55;;
49730;SDS011;35622;52.008;5.426;2023-06-19T09:28:18;12.60;;;10.80;;
49730;SDS011;35622;52.008;5.426;2023-06-19T09:31:01;13.05;;;9.60;;
49730;SDS011;35622;52.008;5.426;2023-06-19T09:33:28;10.80;;;9.70;;
49730;SDS011;35622;52.008;5.426;2023-06-19T09:35:55;12.68;;;10.20;;
49730;SDS011;35622;52.008;5.426;2023-06-19T09:38:23;12.48;;;11.27;;
49730;SDS011;35622;52.008;5.426;2023-06-19T09:40:51;11.50;;;10.40;;
49730;SDS011;35622;52.008;5.426;2023-06-19T09:43:18;12.52;;;11.23;;
49730;SDS011;35622;52.008;5.426;2023-06-19T09:45:48;13.90;;;12.25;;
49730;SDS011;35622;52.008;5.426;2023-06-19T09:48:15;13.13;;;11.73;;
49730;SDS011;35622;52.008;5.426;2023-06-19T09:50:46;13.00;;;11.57;;
49730;SDS011;35622;52.008;5.426;2023-06-19T09:53:14;12.30;;;10.73;;
49730;SDS011;35622;52.008;5.426;2023-06-19T09:55:40;14.35;;;12.85;;
49730;SDS011;35622;52.008;5.426;2023-06-19T09:58:06;9.38;;;8.48;;
49730;SDS011;35622;52.008;5.426;2023-06-19T10:00:32;14.02;;;12.07;;
49730;SDS011;35622;52.008;5.426;2023-06-19T10:03:00;11.35;;;10.25;;
49730;SDS011;35622;52.008;5.426;2023-06-19T10:05:33;11.38;;;10.20;;
49730;SDS011;35622;52.008;5.426;2023-06-19T10:08:01;12.38;;;11.05;;
49730;SDS011;35622;52.008;5.426;2023-06-19T10:10:28;9.85;;;8.90;;
49730;SDS011;35622;52.008;5.426;2023-06-19T10:12:54;11.05;;;9.60;;
49730;SDS011;35622;52.008;5.426;2023-06-19T10:15:22;10.00;;;8.93;;
49730;SDS011;35622;52.008;5.426;2023-06-19T10:17:53;10.07;;;9.05;;
49730;SDS011;35622;52.008;5.426;2023-06-19T10:20:30;12.82;;;9.40;;
49730;SDS011;35622;52.008;5.426;2023-06-19T10:25:34;13.00;;;11.15;;
49730;SDS011;35622;52.008;5.426;2023-06-19T10:28:02;12.10;;;10.52;;
49730;SDS011;35622;52.008;5.426;2023-06-19T10:30:31;9.82;;;8.70;;
49730;SDS011;35622;52.008;5.426;2023-06-19T10:32:59;11.32;;;10.23;;
49730;SDS011;35622;52.008;5.426;2023-06-19T10:35:27;10.18;;;9.18;;
49730;SDS011;35622;52.008;5.426;2023-06-19T10:37:53;8.73;;;7.85;;
49730;SDS011;35622;52.008;5.426;2023-06-19T10:40:19;10.10;;;9.10;;
49730;SDS011;35622;52.008;5.426;2023-06-19T10:42:46;10.68;;;9.45;;
49730;SDS011;35622;52.008;5.426;2023-06-19T10:45:12;10.82;;;9.80;;
49730;SDS011;35622;52.008;5.426;2023-06-19T10:47:40;9.57;;;8.68;;
49730;SDS011;35622;52.008;5.426;2023-06-19T10:50:10;8.07;;;7.28;;
49730;SDS011;35622;52.008;5.426;2023-06-19T10:52:39;9.52;;;8.52;;
49730;SDS011;35622;52.008;5.426;2023-06-19T10:55:05;10.50;;;9.38;;
49730;SDS011;35622;52.008;5.426;2023-06-19T10:57:31;9.32;;;8.30;;
49730;SDS011;35622;52.008;5.426;2023-06-19T10:59:57;12.05;;;10.95;;
49730;SDS011;35622;52.008;5.426;2023-06-19T11:02:25;11.35;;;9.35;;
49730;SDS011;35622;52.008;5.426;2023-06-19T11:04:54;8.55;;;7.75;;
49730;SDS011;35622;52.008;5.426;2023-06-19T11:07:21;10.82;;;9.73;;
49730;SDS011;35622;52.008;5.426;2023-06-19T11:09:48;10.75;;;9.65;;
49730;SDS011;35622;52.008;5.426;2023-06-19T11:12:20;9.57;;;8.52;;
49730;SDS011;35622;52.008;5.426;2023-06-19T11:14:47;9.45;;;8.55;;
49730;SDS011;35622;52.008;5.426;2023-06-19T11:17:13;10.23;;;9.18;;
49730;SDS011;35622;52.008;5.426;2023-06-19T11:19:39;13.07;;;11.88;;
49730;SDS011;35622;52.008;5.426;2023-06-19T11:22:07;11.57;;;10.40;;
49730;SDS011;35622;52.008;5.426;2023-06-19T11:24:33;11.95;;;10.80;;
49730;SDS011;35622;52.008;5.426;2023-06-19T11:26:59;13.75;;;11.27;;
49730;SDS011;35622;52.008;5.426;2023-06-19T11:29:25;9.73;;;8.82;;
49730;SDS011;35622;52.008;5.426;2023-06-19T11:31:54;9.80;;;8.90;;
49730;SDS011;35622;52.008;5.426;2023-06-19T11:34:34;10.23;;;9.10;;
49730;SDS011;35622;52.008;5.426;2023-06-19T11:37:02;8.80;;;7.90;;
49730;SDS011;35622;52.008;5.426;2023-06-19T11:39:36;10.57;;;9.57;;
49730;SDS011;35622;52.008;5.426;2023-06-19T11:42:02;9.48;;;8.38;;
49730;SDS011;35622;52.008;5.426;2023-06-19T11:44:28;15.40;;;11.27;;
49730;SDS011;35622;52.008;5.426;2023-06-19T11:46:56;10.38;;;9.38;;
49730;SDS011;35622;52.008;5.426;2023-06-19T11:49:22;10.30;;;8.95;;
49730;SDS011;35622;52.008;5.426;2023-06-19T11:51:48;12.45;;;9.73;;
49730;SDS011;35622;52.008;5.426;2023-06-19T11:54:14;11.10;;;9.82;;
49730;SDS011;35622;52.008;5.426;2023-06-19T11:56:40;9.98;;;8.98;;
49730;SDS011;35622;52.008;5.426;2023-06-19T11:59:06;8.98;;;8.07;;
49730;SDS011;35622;52.008;5.426;2023-06-19T12:01:32;10.85;;;9.80;;
49730;SDS011;35622;52.008;5.426;2023-06-19T12:03:59;10.85;;;9.80;;
49730;SDS011;35622;52.008;5.426;2023-06-19T12:06:25;10.15;;;9.18;;
49730;SDS011;35622;52.008;5.426;2023-06-19T12:08:52;11.00;;;9.90;;
49730;SDS011;35622;52.008;5.426;2023-06-19T12:11:17;11.07;;;10.00;;
49730;SDS011;35622;52.008;5.426;2023-06-19T12:13:43;11.40;;;10.30;;
49730;SDS011;35622;52.008;5.426;2023-06-19T12:16:11;9.57;;;8.68;;
49730;SDS011;35622;52.008;5.426;2023-06-19T12:18:38;11.77;;;9.93;;
49730;SDS011;35622;52.008;5.426;2023-06-19T12:21:03;11.15;;;10.10;;
49730;SDS011;35622;52.008;5.426;2023-06-19T12:23:29;13.23;;;11.82;;
49730;SDS011;35622;52.008;5.426;2023-06-19T12:25:55;12.25;;;11.05;;
49730;SDS011;35622;52.008;5.426;2023-06-19T12:28:21;10.52;;;9.32;;
49730;SDS011;35622;52.008;5.426;2023-06-19T12:30:46;11.20;;;10.00;;
49730;SDS011;35622;52.008;5.426;2023-06-19T12:33:19;8.85;;;7.20;;
49730;SDS011;35622;52.008;5.426;2023-06-19T12:35:48;10.63;;;9.52;;
49730;SDS011;35622;52.008;5.426;2023-06-19T12:38:14;12.23;;;10.85;;
49730;SDS011;35622;52.008;5.426;2023-06-19T12:40:40;9.65;;;8.65;;
49730;SDS011;35622;52.008;5.426;2023-06-19T12:43:06;11.27;;;9.43;;
49730;SDS011;35622;52.008;5.426;2023-06-19T12:45:33;11.52;;;9.98;;
49730;SDS011;35622;52.008;5.426;2023-06-19T12:47:59;12.40;;;10.68;;
49730;SDS011;35622;52.008;5.426;2023-06-19T12:50:24;11.00;;;9.13;;
49730;SDS011;35622;52.008;5.426;2023-06-19T12:52:50;10.45;;;9.13;;
49730;SDS011;35622;52.008;5.426;2023-06-19T12:55:16;12.63;;;10.35;;
49730;SDS011;35622;52.008;5.426;2023-06-19T12:57:41;10.23;;;9.20;;
49730;SDS011;35622;52.008;5.426;2023-06-19T13:00:11;10.68;;;8.98;;
49730;SDS011;35622;52.008;5.426;2023-06-19T13:02:37;9.93;;;8.93;;
49730;SDS011;35622;52.008;5.426;2023-06-19T13:05:04;9.10;;;7.72;;
49730;SDS011;35622;52.008;5.426;2023-06-19T13:07:31;9.63;;;8.48;;
49730;SDS011;35622;52.008;5.426;2023-06-19T13:09:56;10.05;;;8.63;;
49730;SDS011;35622;52.008;5.426;2023-06-19T13:12:23;9.68;;;7.97;;
49730;SDS011;35622;52.008;5.426;2023-06-19T13:14:48;12.13;;;7.70;;
49730;SDS011;35622;52.008;5.426;2023-06-19T13:17:14;11.45;;;9.98;;
49730;SDS011;35622;52.008;5.426;2023-06-19T13:19:39;10.75;;;8.70;;
49730;SDS011;35622;52.008;5.426;2023-06-19T13:22:05;8.20;;;6.72;;
49730;SDS011;35622;52.008;5.426;2023-06-19T13:24:31;12.70;;;9.60;;
49730;SDS011;35622;52.008;5.426;2023-06-19T13:26:57;9.60;;;8.50;;
49730;SDS011;35622;52.008;5.426;2023-06-19T13:29:22;8.52;;;6.82;;
49730;SDS011;35622;52.008;5.426;2023-06-19T13:31:48;9.38;;;7.28;;
49730;SDS011;35622;52.008;5.426;2023-06-19T13:34:14;8.43;;;7.47;;
49730;SDS011;35622;52.008;5.426;2023-06-19T13:36:39;9.57;;;7.72;;
49730;SDS011;35622;52.008;5.426;2023-06-19T13:39:05;10.77;;;7.97;;
49730;SDS011;35622;52.008;5.426;2023-06-19T13:41:31;7.97;;;6.88;;
49730;SDS011;35622;52.008;5.426;2023-06-19T13:43:58;8.70;;;6.75;;
49730;SDS011;35622;52.008;5.426;2023-06-19T13:46:24;9.25;;;7.38;;
49730;SDS011;35622;52.008;5.426;2023-06-19T13:48:50;8.88;;;7.47;;
49730;SDS011;35622;52.008;5.426;2023-06-19T13:51:19;9.65;;;7.05;;
49730;SDS011;35622;52.008;5.426;2023-06-19T13:53:46;8.80;;;7.50;;
49730;SDS011;35622;52.008;5.426;2023-06-19T13:56:13;9.45;;;8.40;;
49730;SDS011;35622;52.008;5.426;2023-06-19T13:58:38;9.55;;;8.35;;
49730;SDS011;35622;52.008;5.426;2023-06-19T14:01:04;9.70;;;8.70;;
49730;SDS011;35622;52.008;5.426;2023-06-19T14:03:30;11.23;;;7.25;;
49730;SDS011;35622;52.008;5.426;2023-06-19T14:05:56;9.38;;;7.97;;
49730;SDS011;35622;52.008;5.426;2023-06-19T14:08:22;12.23;;;8.50;;
49730;SDS011;35622;52.008;5.426;2023-06-19T14:10:49;9.25;;;7.57;;
49730;SDS011;35622;52.008;5.426;2023-06-19T14:13:15;11.95;;;9.07;;
49730;SDS011;35622;52.008;5.426;2023-06-19T14:15:40;8.80;;;7.78;;
49730;SDS011;35622;52.008;5.426;2023-06-19T14:18:06;9.00;;;7.47;;
49730;SDS011;35622;52.008;5.426;2023-06-19T14:20:32;10.38;;;8.32;;
49730;SDS011;35622;52.008;5.426;2023-06-19T14:22:57;15.43;;;8.95;;
49730;SDS011;35622;52.008;5.426;2023-06-19T14:25:23;8.82;;;7.68;;
49730;SDS011;35622;52.008;5.426;2023-06-19T14:27:48;9.20;;;8.00;;
49730;SDS011;35622;52.008;5.426;2023-06-19T14:30:14;10.02;;;8.20;;
49730;SDS011;35622;52.008;5.426;2023-06-19T14:32:39;9.57;;;7.28;;
49730;SDS011;35622;52.008;5.426;2023-06-19T14:35:05;9.63;;;7.80;;